sensor_id;sensor_type;location;lat;lon;timestamp;P1;durP1;ratioP1;P2;durP2;ratioP2
73776;SDS011;62088;50.240;2.696;2023-04-25T00:00:15;13.38;;;11.98;;
73776;SDS011;62088;50.240;2.696;2023-04-25T00:02:43;15.32;;;12.30;;
73776;SDS011;62088;50.240;2.696;2023-04-25T00:05:10;15.23;;;11.93;;
73776;SDS011;62088;50.240;2.696;2023-04-25T00:07:38;15.68;;;12.38;;
73776;SDS011;62088;50.240;2.696;2023-04-25T00:10:05;16.33;;;13.20;;
73776;SDS011;62088;50.240;2.696;2023-04-25T00:12:33;14.82;;;12.05;;
73776;SDS011;62088;50.240;2.696;2023-04-25T00:15:00;17.00;;;12.52;;
73776;SDS011;62088;50.240;2.696;2023-04-25T00:17:27;17.15;;;12.55;;
73776;SDS011;62088;50.240;2.696;2023-04-25T00:19:54;16.33;;;11.55;;
73776;SDS011;62088;50.240;2.696;2023-04-25T00:22:22;14.50;;;12.05;;
73776;SDS011;62088;50.240;2.696;2023-04-25T00:24:49;16.02;;;11.60;;
73776;SDS011;62088;50.240;2.696;2023-04-25T00:27:16;15.88;;;11.75;;
73776;SDS011;62088;50.240;2.696;2023-04-25T00:29:44;17.25;;;12.15;;
73776;SDS011;62088;50.240;2.696;2023-04-25T00:32:11;13.05;;;11.20;;
73776;SDS011;62088;50.240;2.696;2023-04-25T00:34:38;14.48;;;10.95;;
73776;SDS011;62088;50.240;2.696;2023-04-25T00:37:06;13.70;;;11.43;;
73776;SDS011;62088;50.240;2.696;2023-04-25T00:39:33;14.73;;;11.20;;
73776;SDS011;62088;50.240;2.696;2023-04-25T00:42:00;15.10;;;11.38;;
73776;SDS011;62088;50.240;2.696;2023-04-25T00:44:29;13.77;;;10.95;;
73776;SDS011;62088;50.240;2.696;2023-04-25T00:46:58;12.57;;;10.07;;
73776;SDS011;62088;50.240;2.696;2023-04-25T00:49:28;13.48;;;10.98;;
73776;SDS011;62088;50.240;2.696;2023-04-25T00:51:55;15.45;;;10.57;;
73776;SDS011;62088;50.240;2.696;2023-04-25T00:54:23;14.20;;;10.10;;
73776;SDS011;62088;50.240;2.696;2023-04-25T00:56:50;13.00;;;10.00;;
73776;SDS011;62088;50.240;2.696;2023-04-25T00:59:18;13.35;;;10.52;;
73776;SDS011;62088;50.240;2.696;2023-04-25T01:01:46;16.73;;;10.18;;
73776;SDS011;62088;50.240;2.696;2023-04-25T01:04:14;15.02;;;10.40;;
73776;SDS011;62088;50.240;2.696;2023-04-25T01:06:41;12.73;;;10.07;;
73776;SDS011;62088;50.240;2.696;2023-04-25T01:09:08;11.55;;;9.68;;
73776;SDS011;62088;50.240;2.696;2023-04-25T01:11:36;11.10;;;9.55;;
73776;SDS011;62088;50.240;2.696;2023-04-25T01:14:03;12.70;;;9.88;;
73776;SDS011;62088;50.240;2.696;2023-04-25T01:16:31;16.08;;;10.88;;
73776;SDS011;62088;50.240;2.696;2023-04-25T01:18:59;12.82;;;10.32;;
73776;SDS011;62088;50.240;2.696;2023-04-25T01:21:26;12.43;;;9.68;;
73776;SDS011;62088;50.240;2.696;2023-04-25T01:23:56;13.85;;;10.52;;
73776;SDS011;62088;50.240;2.696;2023-04-25T01:26:23;13.13;;;10.20;;
73776;SDS011;62088;50.240;2.696;2023-04-25T01:28:51;14.13;;;10.48;;
73776;SDS011;62088;50.240;2.696;2023-04-25T01:31:18;14.50;;;10.63;;
73776;SDS011;62088;50.240;2.696;2023-04-25T01:33:46;15.40;;;11.00;;
73776;SDS011;62088;50.240;2.696;2023-04-25T01:36:14;14.93;;;13.13;;
73776;SDS011;62088;50.240;2.696;2023-04-25T01:38:42;18.98;;;14.35;;
73776;SDS011;62088;50.240;2.696;2023-04-25T01:41:10;16.08;;;14.07;;
73776;SDS011;62088;50.240;2.696;2023-04-25T01:43:37;16.05;;;13.15;;
73776;SDS011;62088;50.240;2.696;2023-04-25T01:46:04;16.63;;;13.32;;
73776;SDS011;62088;50.240;2.696;2023-04-25T01:48:32;24.10;;;15.70;;
73776;SDS011;62088;50.240;2.696;2023-04-25T01:50:59;17.50;;;15.05;;
73776;SDS011;62088;50.240;2.696;2023-04-25T01:53:27;19.77;;;15.45;;
73776;SDS011;62088;50.240;2.696;2023-04-25T01:55:55;18.20;;;15.05;;
73776;SDS011;62088;50.240;2.696;2023-04-25T01:58:24;21.17;;;15.68;;
73776;SDS011;62088;50.240;2.696;2023-04-25T02:01:04;22.48;;;14.15;;
73776;SDS011;62088;50.240;2.696;2023-04-25T02:03:39;16.42;;;13.13;;
73776;SDS011;62088;50.240;2.696;2023-04-25T02:06:12;19.75;;;13.02;;
73776;SDS011;62088;50.240;2.696;2023-04-25T02:08:42;17.40;;;12.35;;
73776;SDS011;62088;50.240;2.696;2023-04-25T02:11:11;15.90;;;11.65;;
73776;SDS011;62088;50.240;2.696;2023-04-25T02:13:44;18.85;;;11.80;;
73776;SDS011;62088;50.240;2.696;2023-04-25T02:16:31;20.77;;;11.07;;
73776;SDS011;62088;50.240;2.696;2023-04-25T02:18:59;16.73;;;11.27;;
73776;SDS011;62088;50.240;2.696;2023-04-25T02:21:29;16.17;;;11.05;;
73776;SDS011;62088;50.240;2.696;2023-04-25T02:23:57;18.27;;;11.60;;
73776;SDS011;62088;50.240;2.696;2023-04-25T02:26:27;17.23;;;13.40;;
73776;SDS011;62088;50.240;2.696;2023-04-25T02:28:54;13.77;;;6.43;;
73776;SDS011;62088;50.240;2.696;2023-04-25T02:31:21;19.73;;;11.32;;
73776;SDS011;62088;50.240;2.696;2023-04-25T02:33:49;14.05;;;10.40;;
73776;SDS011;62088;50.240;2.696;2023-04-25T02:36:17;14.75;;;9.20;;
73776;SDS011;62088;50.240;2.696;2023-04-25T02:38:44;15.38;;;8.57;;
73776;SDS011;62088;50.240;2.696;2023-04-25T02:41:11;14.93;;;7.40;;
73776;SDS011;62088;50.240;2.696;2023-04-25T02:43:38;14.80;;;6.82;;
73776;SDS011;62088;50.240;2.696;2023-04-25T02:46:05;13.20;;;6.65;;
73776;SDS011;62088;50.240;2.696;2023-04-25T02:48:32;15.10;;;6.68;;
73776;SDS011;62088;50.240;2.696;2023-04-25T02:50:59;12.38;;;5.72;;
73776;SDS011;62088;50.240;2.696;2023-04-25T02:53:27;13.23;;;5.57;;
73776;SDS011;62088;50.240;2.696;2023-04-25T02:55:54;12.77;;;5.70;;
73776;SDS011;62088;50.240;2.696;2023-04-25T02:58:21;16.80;;;6.10;;
73776;SDS011;62088;50.240;2.696;2023-04-25T03:00:50;11.20;;;5.60;;
73776;SDS011;62088;50.240;2.696;2023-04-25T03:03:17;11.85;;;5.35;;
73776;SDS011;62088;50.240;2.696;2023-04-25T03:05:49;9.93;;;5.22;;
73776;SDS011;62088;50.240;2.696;2023-04-25T03:08:21;11.52;;;5.30;;
73776;SDS011;62088;50.240;2.696;2023-04-25T03:10:49;11.15;;;4.70;;
73776;SDS011;62088;50.240;2.696;2023-04-25T03:13:17;8.20;;;3.83;;
73776;SDS011;62088;50.240;2.696;2023-04-25T03:15:45;9.63;;;4.75;;
73776;SDS011;62088;50.240;2.696;2023-04-25T03:18:12;14.30;;;4.30;;
73776;SDS011;62088;50.240;2.696;2023-04-25T03:20:39;11.95;;;5.15;;
73776;SDS011;62088;50.240;2.696;2023-04-25T03:23:08;13.93;;;5.93;;
73776;SDS011;62088;50.240;2.696;2023-04-25T03:25:36;10.63;;;5.18;;
73776;SDS011;62088;50.240;2.696;2023-04-25T03:28:03;12.35;;;5.65;;
73776;SDS011;62088;50.240;2.696;2023-04-25T03:30:31;11.68;;;5.30;;
73776;SDS011;62088;50.240;2.696;2023-04-25T03:32:59;10.95;;;4.85;;
73776;SDS011;62088;50.240;2.696;2023-04-25T03:35:26;8.27;;;5.20;;
73776;SDS011;62088;50.240;2.696;2023-04-25T03:37:53;10.82;;;4.72;;
73776;SDS011;62088;50.240;2.696;2023-04-25T03:40:26;11.70;;;4.53;;
73776;SDS011;62088;50.240;2.696;2023-04-25T03:43:16;9.65;;;4.55;;
73776;SDS011;62088;50.240;2.696;2023-04-25T03:45:50;13.35;;;4.88;;
73776;SDS011;62088;50.240;2.696;2023-04-25T03:48:20;9.38;;;3.88;;
73776;SDS011;62088;50.240;2.696;2023-04-25T03:50:53;12.83;;;4.70;;
73776;SDS011;62088;50.240;2.696;2023-04-25T03:53:21;14.73;;;4.20;;
73776;SDS011;62088;50.240;2.696;2023-04-25T03:56:06;9.23;;;4.00;;
73776;SDS011;62088;50.240;2.696;2023-04-25T03:58:36;8.77;;;3.60;;
73776;SDS011;62088;50.240;2.696;2023-04-25T04:01:03;9.27;;;3.53;;
73776;SDS011;62088;50.240;2.696;2023-04-25T04:03:36;10.32;;;3.90;;
73776;SDS011;62088;50.240;2.696;2023-04-25T04:06:04;7.18;;;3.50;;
73776;SDS011;62088;50.240;2.696;2023-04-25T04:08:36;9.68;;;3.55;;
73776;SDS011;62088;50.240;2.696;2023-04-25T04:11:03;9.85;;;3.88;;
73776;SDS011;62088;50.240;2.696;2023-04-25T04:13:31;12.63;;;3.90;;
73776;SDS011;62088;50.240;2.696;2023-04-25T04:16:00;12.75;;;4.40;;
73776;SDS011;62088;50.240;2.696;2023-04-25T04:18:27;9.80;;;3.92;;
73776;SDS011;62088;50.240;2.696;2023-04-25T04:20:55;8.18;;;3.45;;
73776;SDS011;62088;50.240;2.696;2023-04-25T04:23:26;8.95;;;3.40;;
73776;SDS011;62088;50.240;2.696;2023-04-25T04:25:55;9.55;;;3.58;;
73776;SDS011;62088;50.240;2.696;2023-04-25T04:28:42;9.02;;;3.45;;
73776;SDS011;62088;50.240;2.696;2023-04-25T04:31:39;7.95;;;2.10;;
73776;SDS011;62088;50.240;2.696;2023-04-25T04:34:06;9.43;;;3.67;;
73776;SDS011;62088;50.240;2.696;2023-04-25T04:36:34;9.05;;;3.58;;
73776;SDS011;62088;50.240;2.696;2023-04-25T04:39:01;10.68;;;3.70;;
73776;SDS011;62088;50.240;2.696;2023-04-25T04:41:36;10.95;;;3.60;;
73776;SDS011;62088;50.240;2.696;2023-04-25T04:44:26;12.43;;;3.97;;
73776;SDS011;62088;50.240;2.696;2023-04-25T04:47:13;9.48;;;3.65;;
73776;SDS011;62088;50.240;2.696;2023-04-25T04:50:00;10.45;;;3.70;;
73776;SDS011;62088;50.240;2.696;2023-04-25T04:52:47;10.15;;;3.47;;
73776;SDS011;62088;50.240;2.696;2023-04-25T04:55:33;11.18;;;3.47;;
73776;SDS011;62088;50.240;2.696;2023-04-25T04:58:21;9.90;;;3.50;;
73776;SDS011;62088;50.240;2.696;2023-04-25T05:01:12;8.07;;;3.17;;
73776;SDS011;62088;50.240;2.696;2023-04-25T05:03:59;13.00;;;4.35;;
73776;SDS011;62088;50.240;2.696;2023-04-25T05:06:44;11.75;;;3.70;;
73776;SDS011;62088;50.240;2.696;2023-04-25T05:09:29;11.45;;;3.78;;
73776;SDS011;62088;50.240;2.696;2023-04-25T05:12:19;8.55;;;3.70;;
73776;SDS011;62088;50.240;2.696;2023-04-25T05:14:54;5.63;;;1.63;;
73776;SDS011;62088;50.240;2.696;2023-04-25T05:17:57;10.32;;;3.65;;
73776;SDS011;62088;50.240;2.696;2023-04-25T05:20:37;6.68;;;2.38;;
73776;SDS011;62088;50.240;2.696;2023-04-25T05:23:23;9.60;;;4.28;;
73776;SDS011;62088;50.240;2.696;2023-04-25T05:26:04;10.30;;;3.72;;
73776;SDS011;62088;50.240;2.696;2023-04-25T05:28:55;12.25;;;4.10;;
73776;SDS011;62088;50.240;2.696;2023-04-25T05:31:48;10.57;;;4.18;;
73776;SDS011;62088;50.240;2.696;2023-04-25T05:34:15;12.50;;;4.45;;
73776;SDS011;62088;50.240;2.696;2023-04-25T05:36:52;13.68;;;4.50;;
73776;SDS011;62088;50.240;2.696;2023-04-25T05:39:19;10.98;;;3.92;;
73776;SDS011;62088;50.240;2.696;2023-04-25T05:42:09;12.35;;;4.25;;
73776;SDS011;62088;50.240;2.696;2023-04-25T05:44:49;6.53;;;1.95;;
73776;SDS011;62088;50.240;2.696;2023-04-25T05:47:32;9.38;;;4.03;;
73776;SDS011;62088;50.240;2.696;2023-04-25T05:50:20;8.45;;;4.15;;
73776;SDS011;62088;50.240;2.696;2023-04-25T05:52:57;15.02;;;4.57;;
73776;SDS011;62088;50.240;2.696;2023-04-25T05:55:30;14.73;;;4.93;;
73776;SDS011;62088;50.240;2.696;2023-04-25T05:58:00;12.77;;;4.55;;
73776;SDS011;62088;50.240;2.696;2023-04-25T06:00:27;12.82;;;4.38;;
73776;SDS011;62088;50.240;2.696;2023-04-25T06:02:54;10.30;;;4.30;;
73776;SDS011;62088;50.240;2.696;2023-04-25T06:05:22;8.77;;;4.93;;
73776;SDS011;62088;50.240;2.696;2023-04-25T06:07:50;12.50;;;4.43;;
73776;SDS011;62088;50.240;2.696;2023-04-25T06:10:17;11.35;;;4.78;;
73776;SDS011;62088;50.240;2.696;2023-04-25T06:12:46;10.55;;;4.82;;
73776;SDS011;62088;50.240;2.696;2023-04-25T06:15:15;10.57;;;2.72;;
73776;SDS011;62088;50.240;2.696;2023-04-25T06:17:54;11.23;;;4.70;;
73776;SDS011;62088;50.240;2.696;2023-04-25T06:20:22;11.63;;;4.53;;
73776;SDS011;62088;50.240;2.696;2023-04-25T06:22:52;6.32;;;2.03;;
73776;SDS011;62088;50.240;2.696;2023-04-25T06:25:25;15.85;;;4.75;;
73776;SDS011;62088;50.240;2.696;2023-04-25T06:27:53;12.73;;;4.60;;
73776;SDS011;62088;50.240;2.696;2023-04-25T06:30:21;12.65;;;4.65;;
73776;SDS011;62088;50.240;2.696;2023-04-25T06:32:56;15.15;;;4.68;;
73776;SDS011;62088;50.240;2.696;2023-04-25T06:35:24;12.20;;;4.53;;
73776;SDS011;62088;50.240;2.696;2023-04-25T06:37:52;10.75;;;4.60;;
73776;SDS011;62088;50.240;2.696;2023-04-25T06:40:21;6.57;;;2.72;;
73776;SDS011;62088;50.240;2.696;2023-04-25T06:42:48;15.95;;;4.72;;
73776;SDS011;62088;50.240;2.696;2023-04-25T06:45:31;10.45;;;4.45;;
73776;SDS011;62088;50.240;2.696;2023-04-25T06:47:58;14.73;;;5.38;;
73776;SDS011;62088;50.240;2.696;2023-04-25T06:50:25;13.15;;;4.35;;
73776;SDS011;62088;50.240;2.696;2023-04-25T06:52:52;12.73;;;4.93;;
73776;SDS011;62088;50.240;2.696;2023-04-25T06:55:20;12.77;;;4.40;;
73776;SDS011;62088;50.240;2.696;2023-04-25T06:58:02;11.43;;;4.75;;
73776;SDS011;62088;50.240;2.696;2023-04-25T07:00:48;11.20;;;4.55;;
73776;SDS011;62088;50.240;2.696;2023-04-25T07:03:18;11.98;;;4.72;;
73776;SDS011;62088;50.240;2.696;2023-04-25T07:05:45;6.65;;;2.80;;
73776;SDS011;62088;50.240;2.696;2023-04-25T07:08:12;12.73;;;4.93;;
73776;SDS011;62088;50.240;2.696;2023-04-25T07:10:40;7.47;;;2.25;;
73776;SDS011;62088;50.240;2.696;2023-04-25T07:13:07;10.20;;;4.35;;
73776;SDS011;62088;50.240;2.696;2023-04-25T07:15:35;11.55;;;4.38;;
73776;SDS011;62088;50.240;2.696;2023-04-25T07:18:02;12.40;;;4.97;;
73776;SDS011;62088;50.240;2.696;2023-04-25T07:20:29;10.98;;;4.25;;
73776;SDS011;62088;50.240;2.696;2023-04-25T07:22:57;13.13;;;4.88;;
73776;SDS011;62088;50.240;2.696;2023-04-25T07:25:24;9.85;;;4.22;;
73776;SDS011;62088;50.240;2.696;2023-04-25T07:27:52;9.18;;;4.47;;
73776;SDS011;62088;50.240;2.696;2023-04-25T07:30:20;14.32;;;4.80;;
73776;SDS011;62088;50.240;2.696;2023-04-25T07:32:47;15.15;;;5.15;;
73776;SDS011;62088;50.240;2.696;2023-04-25T07:35:14;11.32;;;4.93;;
73776;SDS011;62088;50.240;2.696;2023-04-25T07:37:42;11.52;;;4.40;;
73776;SDS011;62088;50.240;2.696;2023-04-25T07:40:16;12.30;;;4.70;;
73776;SDS011;62088;50.240;2.696;2023-04-25T07:42:54;13.80;;;4.72;;
73776;SDS011;62088;50.240;2.696;2023-04-25T07:47:55;13.38;;;4.22;;
73776;SDS011;62088;50.240;2.696;2023-04-25T07:50:23;9.77;;;3.58;;
73776;SDS011;62088;50.240;2.696;2023-04-25T07:52:50;4.95;;;2.45;;
73776;SDS011;62088;50.240;2.696;2023-04-25T07:55:25;13.75;;;4.43;;
73776;SDS011;62088;50.240;2.696;2023-04-25T07:58:07;13.85;;;4.60;;
73776;SDS011;62088;50.240;2.696;2023-04-25T08:00:36;13.77;;;4.50;;
73776;SDS011;62088;50.240;2.696;2023-04-25T08:03:22;13.50;;;4.28;;
73776;SDS011;62088;50.240;2.696;2023-04-25T08:05:51;13.90;;;4.55;;
73776;SDS011;62088;50.240;2.696;2023-04-25T08:08:19;10.50;;;3.90;;
73776;SDS011;62088;50.240;2.696;2023-04-25T08:10:47;14.82;;;4.50;;
73776;SDS011;62088;50.240;2.696;2023-04-25T08:13:15;12.95;;;4.30;;
73776;SDS011;62088;50.240;2.696;2023-04-25T08:15:43;13.68;;;3.97;;
73776;SDS011;62088;50.240;2.696;2023-04-25T08:18:11;18.45;;;4.45;;
73776;SDS011;62088;50.240;2.696;2023-04-25T08:20:41;10.50;;;3.75;;
73776;SDS011;62088;50.240;2.696;2023-04-25T08:23:10;12.15;;;3.53;;
73776;SDS011;62088;50.240;2.696;2023-04-25T08:26:00;10.32;;;3.50;;
73776;SDS011;62088;50.240;2.696;2023-04-25T08:28:28;11.15;;;3.53;;
73776;SDS011;62088;50.240;2.696;2023-04-25T08:30:58;10.15;;;2.90;;
73776;SDS011;62088;50.240;2.696;2023-04-25T08:36:25;12.32;;;3.70;;
73776;SDS011;62088;50.240;2.696;2023-04-25T08:39:16;10.63;;;3.25;;
73776;SDS011;62088;50.240;2.696;2023-04-25T08:42:00;9.23;;;3.28;;
73776;SDS011;62088;50.240;2.696;2023-04-25T08:44:31;10.35;;;2.90;;
73776;SDS011;62088;50.240;2.696;2023-04-25T08:47:03;9.77;;;3.38;;
73776;SDS011;62088;50.240;2.696;2023-04-25T08:49:37;11.05;;;2.88;;
73776;SDS011;62088;50.240;2.696;2023-04-25T08:52:06;11.73;;;2.95;;
73776;SDS011;62088;50.240;2.696;2023-04-25T08:54:37;9.77;;;2.70;;
73776;SDS011;62088;50.240;2.696;2023-04-25T08:57:10;11.35;;;3.15;;
73776;SDS011;62088;50.240;2.696;2023-04-25T08:59:39;8.65;;;2.50;;
73776;SDS011;62088;50.240;2.696;2023-04-25T09:02:09;8.75;;;2.75;;
73776;SDS011;62088;50.240;2.696;2023-04-25T09:04:42;7.75;;;2.53;;
73776;SDS011;62088;50.240;2.696;2023-04-25T09:07:10;10.20;;;2.70;;
73776;SDS011;62088;50.240;2.696;2023-04-25T09:09:37;13.55;;;2.80;;
73776;SDS011;62088;50.240;2.696;2023-04-25T09:12:05;13.32;;;3.08;;
73776;SDS011;62088;50.240;2.696;2023-04-25T09:14:33;10.20;;;2.40;;
73776;SDS011;62088;50.240;2.696;2023-04-25T09:17:07;8.55;;;2.50;;
73776;SDS011;62088;50.240;2.696;2023-04-25T09:19:47;10.23;;;2.90;;
73776;SDS011;62088;50.240;2.696;2023-04-25T09:22:19;10.68;;;2.97;;
73776;SDS011;62088;50.240;2.696;2023-04-25T09:24:49;10.20;;;2.70;;
73776;SDS011;62088;50.240;2.696;2023-04-25T09:27:19;10.15;;;2.78;;
73776;SDS011;62088;50.240;2.696;2023-04-25T09:30:00;7.65;;;2.53;;
73776;SDS011;62088;50.240;2.696;2023-04-25T09:32:42;10.32;;;2.60;;
73776;SDS011;62088;50.240;2.696;2023-04-25T09:35:10;12.57;;;2.65;;
73776;SDS011;62088;50.240;2.696;2023-04-25T09:37:39;11.88;;;3.13;;
73776;SDS011;62088;50.240;2.696;2023-04-25T09:40:45;9.10;;;2.20;;
73776;SDS011;62088;50.240;2.696;2023-04-25T09:43:24;9.38;;;2.20;;
73776;SDS011;62088;50.240;2.696;2023-04-25T09:45:53;8.32;;;2.35;;
73776;SDS011;62088;50.240;2.696;2023-04-25T09:48:26;7.10;;;1.85;;
73776;SDS011;62088;50.240;2.696;2023-04-25T09:53:31;6.93;;;1.88;;
73776;SDS011;62088;50.240;2.696;2023-04-25T09:56:12;6.72;;;2.40;;
73776;SDS011;62088;50.240;2.696;2023-04-25T09:58:40;9.48;;;2.30;;
73776;SDS011;62088;50.240;2.696;2023-04-25T10:01:09;7.40;;;1.85;;
73776;SDS011;62088;50.240;2.696;2023-04-25T10:03:50;6.30;;;2.00;;
73776;SDS011;62088;50.240;2.696;2023-04-25T10:06:37;4.60;;;1.70;;
73776;SDS011;62088;50.240;2.696;2023-04-25T10:09:04;6.13;;;1.60;;
73776;SDS011;62088;50.240;2.696;2023-04-25T10:11:34;7.07;;;2.08;;
73776;SDS011;62088;50.240;2.696;2023-04-25T10:14:03;6.65;;;1.90;;
73776;SDS011;62088;50.240;2.696;2023-04-25T10:16:30;7.22;;;1.90;;
73776;SDS011;62088;50.240;2.696;2023-04-25T10:18:58;6.80;;;1.90;;
73776;SDS011;62088;50.240;2.696;2023-04-25T10:21:26;5.55;;;1.48;;
73776;SDS011;62088;50.240;2.696;2023-04-25T10:23:59;5.60;;;1.60;;
73776;SDS011;62088;50.240;2.696;2023-04-25T10:26:27;7.13;;;1.77;;
73776;SDS011;62088;50.240;2.696;2023-04-25T10:29:00;5.13;;;1.45;;
73776;SDS011;62088;50.240;2.696;2023-04-25T10:31:31;8.25;;;1.90;;
73776;SDS011;62088;50.240;2.696;2023-04-25T10:33:59;7.15;;;1.70;;
73776;SDS011;62088;50.240;2.696;2023-04-25T10:36:28;5.93;;;1.65;;
73776;SDS011;62088;50.240;2.696;2023-04-25T10:38:58;6.43;;;1.83;;
73776;SDS011;62088;50.240;2.696;2023-04-25T10:41:45;7.15;;;1.70;;
73776;SDS011;62088;50.240;2.696;2023-04-25T10:44:13;5.55;;;1.70;;
73776;SDS011;62088;50.240;2.696;2023-04-25T10:46:41;5.82;;;1.92;;
73776;SDS011;62088;50.240;2.696;2023-04-25T10:49:28;7.35;;;2.15;;
73776;SDS011;62088;50.240;2.696;2023-04-25T10:54:53;6.13;;;1.63;;
73776;SDS011;62088;50.240;2.696;2023-04-25T11:05:36;6.47;;;1.92;;
73776;SDS011;62088;50.240;2.696;2023-04-25T11:08:22;4.68;;;1.75;;
73776;SDS011;62088;50.240;2.696;2023-04-25T11:11:03;5.63;;;1.90;;
73776;SDS011;62088;50.240;2.696;2023-04-25T11:13:30;6.35;;;1.67;;
73776;SDS011;62088;50.240;2.696;2023-04-25T11:15:57;6.35;;;1.75;;
73776;SDS011;62088;50.240;2.696;2023-04-25T11:18:40;8.02;;;1.98;;
73776;SDS011;62088;50.240;2.696;2023-04-25T11:21:08;6.22;;;2.03;;
73776;SDS011;62088;50.240;2.696;2023-04-25T11:23:35;5.68;;;1.50;;
73776;SDS011;62088;50.240;2.696;2023-04-25T11:26:06;6.00;;;1.70;;
73776;SDS011;62088;50.240;2.696;2023-04-25T11:28:33;7.50;;;1.95;;
73776;SDS011;62088;50.240;2.696;2023-04-25T11:31:02;7.32;;;2.05;;
73776;SDS011;62088;50.240;2.696;2023-04-25T11:33:30;9.98;;;2.53;;
73776;SDS011;62088;50.240;2.696;2023-04-25T11:35:57;7.60;;;2.20;;
73776;SDS011;62088;50.240;2.696;2023-04-25T11:38:24;6.32;;;2.10;;
73776;SDS011;62088;50.240;2.696;2023-04-25T11:40:55;7.90;;;1.95;;
73776;SDS011;62088;50.240;2.696;2023-04-25T11:43:23;6.28;;;1.60;;
73776;SDS011;62088;50.240;2.696;2023-04-25T11:45:50;4.15;;;1.48;;
73776;SDS011;62088;50.240;2.696;2023-04-25T11:48:18;7.00;;;1.98;;
73776;SDS011;62088;50.240;2.696;2023-04-25T11:50:52;5.70;;;1.33;;
73776;SDS011;62088;50.240;2.696;2023-04-25T11:53:20;6.20;;;1.50;;
73776;SDS011;62088;50.240;2.696;2023-04-25T11:55:47;4.63;;;1.50;;
73776;SDS011;62088;50.240;2.696;2023-04-25T11:58:14;5.13;;;1.30;;
73776;SDS011;62088;50.240;2.696;2023-04-25T12:00:42;4.70;;;1.38;;
73776;SDS011;62088;50.240;2.696;2023-04-25T12:03:16;3.17;;;1.13;;
73776;SDS011;62088;50.240;2.696;2023-04-25T12:05:45;5.03;;;1.20;;
73776;SDS011;62088;50.240;2.696;2023-04-25T12:08:13;4.63;;;1.27;;
73776;SDS011;62088;50.240;2.696;2023-04-25T12:10:42;6.15;;;1.60;;
73776;SDS011;62088;50.240;2.696;2023-04-25T12:13:22;6.70;;;1.58;;
73776;SDS011;62088;50.240;2.696;2023-04-25T12:15:50;5.18;;;1.30;;
73776;SDS011;62088;50.240;2.696;2023-04-25T12:18:19;4.72;;;1.20;;
73776;SDS011;62088;50.240;2.696;2023-04-25T12:20:47;5.80;;;1.50;;
73776;SDS011;62088;50.240;2.696;2023-04-25T12:23:14;6.75;;;1.77;;
73776;SDS011;62088;50.240;2.696;2023-04-25T12:25:42;4.15;;;1.50;;
73776;SDS011;62088;50.240;2.696;2023-04-25T12:28:20;6.03;;;1.80;;
73776;SDS011;62088;50.240;2.696;2023-04-25T12:31:03;4.67;;;1.50;;
73776;SDS011;62088;50.240;2.696;2023-04-25T12:33:35;4.22;;;1.20;;
73776;SDS011;62088;50.240;2.696;2023-04-25T12:36:04;5.43;;;1.48;;
73776;SDS011;62088;50.240;2.696;2023-04-25T12:38:36;6.60;;;1.13;;
73776;SDS011;62088;50.240;2.696;2023-04-25T12:41:04;6.45;;;1.45;;
73776;SDS011;62088;50.240;2.696;2023-04-25T12:43:32;4.25;;;1.17;;
73776;SDS011;62088;50.240;2.696;2023-04-25T12:46:00;5.05;;;1.38;;
73776;SDS011;62088;50.240;2.696;2023-04-25T12:48:27;6.93;;;1.67;;
73776;SDS011;62088;50.240;2.696;2023-04-25T12:50:54;6.07;;;1.80;;
73776;SDS011;62088;50.240;2.696;2023-04-25T12:53:22;4.97;;;1.60;;
73776;SDS011;62088;50.240;2.696;2023-04-25T12:55:52;7.45;;;1.58;;
73776;SDS011;62088;50.240;2.696;2023-04-25T12:58:24;4.93;;;1.33;;
73776;SDS011;62088;50.240;2.696;2023-04-25T13:00:52;6.63;;;2.28;;
73776;SDS011;62088;50.240;2.696;2023-04-25T13:03:19;4.63;;;1.23;;
73776;SDS011;62088;50.240;2.696;2023-04-25T13:05:46;6.97;;;1.65;;
73776;SDS011;62088;50.240;2.696;2023-04-25T13:08:13;3.92;;;1.15;;
73776;SDS011;62088;50.240;2.696;2023-04-25T13:10:40;6.10;;;1.65;;
73776;SDS011;62088;50.240;2.696;2023-04-25T13:13:08;3.45;;;1.15;;
73776;SDS011;62088;50.240;2.696;2023-04-25T13:15:35;5.93;;;1.50;;
73776;SDS011;62088;50.240;2.696;2023-04-25T13:18:03;3.92;;;1.15;;
73776;SDS011;62088;50.240;2.696;2023-04-25T13:20:32;4.28;;;1.05;;
73776;SDS011;62088;50.240;2.696;2023-04-25T13:22:59;4.47;;;1.15;;
73776;SDS011;62088;50.240;2.696;2023-04-25T13:25:28;3.60;;;1.30;;
73776;SDS011;62088;50.240;2.696;2023-04-25T13:27:55;4.38;;;1.38;;
73776;SDS011;62088;50.240;2.696;2023-04-25T13:30:22;4.47;;;1.30;;
73776;SDS011;62088;50.240;2.696;2023-04-25T13:32:49;5.50;;;1.13;;
73776;SDS011;62088;50.240;2.696;2023-04-25T13:35:16;9.07;;;1.67;;
73776;SDS011;62088;50.240;2.696;2023-04-25T13:37:43;5.30;;;1.48;;
73776;SDS011;62088;50.240;2.696;2023-04-25T13:40:10;8.45;;;1.40;;
73776;SDS011;62088;50.240;2.696;2023-04-25T13:42:38;5.07;;;1.50;;
73776;SDS011;62088;50.240;2.696;2023-04-25T13:45:06;6.55;;;1.52;;
73776;SDS011;62088;50.240;2.696;2023-04-25T13:47:34;4.85;;;1.65;;
73776;SDS011;62088;50.240;2.696;2023-04-25T13:50:01;5.38;;;1.45;;
73776;SDS011;62088;50.240;2.696;2023-04-25T13:52:29;4.30;;;1.40;;
73776;SDS011;62088;50.240;2.696;2023-04-25T13:54:57;4.97;;;1.27;;
73776;SDS011;62088;50.240;2.696;2023-04-25T13:57:24;4.95;;;1.65;;
73776;SDS011;62088;50.240;2.696;2023-04-25T13:59:52;4.88;;;1.77;;
73776;SDS011;62088;50.240;2.696;2023-04-25T14:02:20;4.47;;;1.30;;
73776;SDS011;62088;50.240;2.696;2023-04-25T14:04:47;6.25;;;1.48;;
73776;SDS011;62088;50.240;2.696;2023-04-25T14:07:14;5.85;;;1.40;;
73776;SDS011;62088;50.240;2.696;2023-04-25T14:09:45;5.38;;;1.25;;
73776;SDS011;62088;50.240;2.696;2023-04-25T14:12:12;3.80;;;1.30;;
73776;SDS011;62088;50.240;2.696;2023-04-25T14:14:39;3.92;;;1.50;;
73776;SDS011;62088;50.240;2.696;2023-04-25T14:17:07;6.18;;;1.80;;
73776;SDS011;62088;50.240;2.696;2023-04-25T14:19:35;4.43;;;1.45;;
73776;SDS011;62088;50.240;2.696;2023-04-25T14:22:03;3.97;;;1.30;;
73776;SDS011;62088;50.240;2.696;2023-04-25T14:24:31;5.68;;;1.50;;
73776;SDS011;62088;50.240;2.696;2023-04-25T14:26:58;5.28;;;1.30;;
73776;SDS011;62088;50.240;2.696;2023-04-25T14:29:25;6.93;;;1.60;;
73776;SDS011;62088;50.240;2.696;2023-04-25T14:31:53;5.40;;;1.55;;
73776;SDS011;62088;50.240;2.696;2023-04-25T14:34:20;4.53;;;1.83;;
73776;SDS011;62088;50.240;2.696;2023-04-25T14:36:47;6.05;;;1.63;;
73776;SDS011;62088;50.240;2.696;2023-04-25T14:39:14;7.18;;;2.00;;
73776;SDS011;62088;50.240;2.696;2023-04-25T14:41:42;5.28;;;1.70;;
73776;SDS011;62088;50.240;2.696;2023-04-25T14:44:09;6.82;;;1.70;;
73776;SDS011;62088;50.240;2.696;2023-04-25T14:46:38;6.30;;;1.73;;
73776;SDS011;62088;50.240;2.696;2023-04-25T14:49:06;4.80;;;1.13;;
73776;SDS011;62088;50.240;2.696;2023-04-25T14:51:33;6.45;;;1.60;;
73776;SDS011;62088;50.240;2.696;2023-04-25T14:54:00;8.52;;;1.67;;
73776;SDS011;62088;50.240;2.696;2023-04-25T14:56:28;6.93;;;1.75;;
73776;SDS011;62088;50.240;2.696;2023-04-25T14:58:55;5.05;;;1.58;;
73776;SDS011;62088;50.240;2.696;2023-04-25T15:01:22;6.57;;;1.63;;
73776;SDS011;62088;50.240;2.696;2023-04-25T15:03:50;4.60;;;1.67;;
73776;SDS011;62088;50.240;2.696;2023-04-25T15:06:18;4.80;;;1.33;;
73776;SDS011;62088;50.240;2.696;2023-04-25T15:08:45;7.95;;;1.67;;
73776;SDS011;62088;50.240;2.696;2023-04-25T15:11:12;5.03;;;1.48;;
73776;SDS011;62088;50.240;2.696;2023-04-25T15:13:39;6.65;;;1.80;;
73776;SDS011;62088;50.240;2.696;2023-04-25T15:16:06;6.93;;;2.05;;
73776;SDS011;62088;50.240;2.696;2023-04-25T15:18:33;4.90;;;1.42;;